sensor_id;sensor_type;location;lat;lon;timestamp;P1;durP1;ratioP1;P2;durP2;ratioP2
44434;SDS011;30138;20.964;105.830;2023-09-12T00:02:04;39.80;;;29.33;;
44434;SDS011;30138;20.964;105.830;2023-09-12T00:07:12;41.50;;;28.80;;
44434;SDS011;30138;20.964;105.830;2023-09-12T00:12:22;40.92;;;29.45;;
44434;SDS011;30138;20.964;105.830;2023-09-12T00:17:28;41.05;;;29.38;;
44434;SDS011;30138;20.964;105.830;2023-09-12T00:22:36;47.53;;;30.83;;
44434;SDS011;30138;20.964;105.830;2023-09-12T00:27:43;39.65;;;29.17;;
44434;SDS011;30138;20.964;105.830;2023-09-12T00:32:50;42.30;;;29.70;;
44434;SDS011;30138;20.964;105.830;2023-09-12T00:37:58;42.90;;;29.65;;
44434;SDS011;30138;20.964;105.830;2023-09-12T00:43:04;42.55;;;30.30;;
44434;SDS011;30138;20.964;105.830;2023-09-12T00:48:11;39.25;;;28.83;;
44434;SDS011;30138;20.964;105.830;2023-09-12T00:53:22;42.33;;;29.73;;
44434;SDS011;30138;20.964;105.830;2023-09-12T00:58:28;41.97;;;29.45;;
44434;SDS011;30138;20.964;105.830;2023-09-12T01:03:34;40.47;;;29.02;;
44434;SDS011;30138;20.964;105.830;2023-09-12T01:08:44;40.63;;;28.42;;
44434;SDS011;30138;20.964;105.830;2023-09-12T01:13:51;38.25;;;27.45;;
44434;SDS011;30138;20.964;105.830;2023-09-12T01:18:58;40.95;;;30.15;;
44434;SDS011;30138;20.964;105.830;2023-09-12T01:24:07;39.95;;;29.23;;
44434;SDS011;30138;20.964;105.830;2023-09-12T01:29:56;41.15;;;28.88;;
44434;SDS011;30138;20.964;105.830;2023-09-12T01:35:05;39.00;;;28.42;;
44434;SDS011;30138;20.964;105.830;2023-09-12T01:40:11;40.38;;;28.23;;
44434;SDS011;30138;20.964;105.830;2023-09-12T01:45:20;40.35;;;28.40;;
44434;SDS011;30138;20.964;105.830;2023-09-12T01:50:26;36.55;;;27.10;;
44434;SDS011;30138;20.964;105.830;2023-09-12T01:55:33;36.50;;;27.55;;
44434;SDS011;30138;20.964;105.830;2023-09-12T02:00:41;42.50;;;28.98;;
44434;SDS011;30138;20.964;105.830;2023-09-12T02:05:46;36.63;;;27.10;;
44434;SDS011;30138;20.964;105.830;2023-09-12T02:10:53;38.60;;;27.45;;
44434;SDS011;30138;20.964;105.830;2023-09-12T02:16:01;38.30;;;27.95;;
44434;SDS011;30138;20.964;105.830;2023-09-12T02:21:07;37.65;;;26.48;;
44434;SDS011;30138;20.964;105.830;2023-09-12T02:26:14;37.38;;;26.50;;
44434;SDS011;30138;20.964;105.830;2023-09-12T02:31:21;35.55;;;26.15;;
44434;SDS011;30138;20.964;105.830;2023-09-12T02:36:28;38.05;;;28.17;;
44434;SDS011;30138;20.964;105.830;2023-09-12T02:41:34;34.38;;;25.20;;
44434;SDS011;30138;20.964;105.830;2023-09-12T02:46:42;37.35;;;27.77;;
44434;SDS011;30138;20.964;105.830;2023-09-12T02:51:50;35.85;;;27.10;;
44434;SDS011;30138;20.964;105.830;2023-09-12T02:56:56;33.92;;;26.00;;
44434;SDS011;30138;20.964;105.830;2023-09-12T03:02:04;35.17;;;26.80;;
44434;SDS011;30138;20.964;105.830;2023-09-12T03:07:10;40.80;;;28.20;;
44434;SDS011;30138;20.964;105.830;2023-09-12T03:12:16;39.15;;;27.70;;
44434;SDS011;30138;20.964;105.830;2023-09-12T03:17:24;35.97;;;26.52;;
44434;SDS011;30138;20.964;105.830;2023-09-12T03:22:32;33.70;;;25.35;;
44434;SDS011;30138;20.964;105.830;2023-09-12T03:27:40;36.72;;;26.42;;
44434;SDS011;30138;20.964;105.830;2023-09-12T03:32:48;37.20;;;26.98;;
44434;SDS011;30138;20.964;105.830;2023-09-12T03:37:55;37.28;;;26.88;;
44434;SDS011;30138;20.964;105.830;2023-09-12T03:43:01;43.03;;;28.05;;
44434;SDS011;30138;20.964;105.830;2023-09-12T03:48:09;60.50;;;38.08;;
44434;SDS011;30138;20.964;105.830;2023-09-12T03:53:15;78.93;;;48.08;;
44434;SDS011;30138;20.964;105.830;2023-09-12T03:58:21;94.13;;;53.60;;
44434;SDS011;30138;20.964;105.830;2023-09-12T04:03:30;89.57;;;55.20;;
44434;SDS011;30138;20.964;105.830;2023-09-12T04:08:36;85.85;;;56.03;;
44434;SDS011;30138;20.964;105.830;2023-09-12T04:13:44;85.75;;;54.33;;
44434;SDS011;30138;20.964;105.830;2023-09-12T04:18:52;92.65;;;57.67;;
44434;SDS011;30138;20.964;105.830;2023-09-12T04:23:59;92.82;;;58.63;;
44434;SDS011;30138;20.964;105.830;2023-09-12T04:29:05;90.90;;;55.90;;
44434;SDS011;30138;20.964;105.830;2023-09-12T04:34:13;89.75;;;56.97;;
44434;SDS011;30138;20.964;105.830;2023-09-12T04:39:19;98.13;;;58.53;;
44434;SDS011;30138;20.964;105.830;2023-09-12T04:44:25;93.90;;;58.55;;
44434;SDS011;30138;20.964;105.830;2023-09-12T04:49:33;98.38;;;60.33;;
44434;SDS011;30138;20.964;105.830;2023-09-12T04:54:39;110.40;;;64.68;;
44434;SDS011;30138;20.964;105.830;2023-09-12T04:59:46;109.90;;;63.95;;
44434;SDS011;30138;20.964;105.830;2023-09-12T05:04:54;103.43;;;64.05;;
44434;SDS011;30138;20.964;105.830;2023-09-12T05:10:00;102.40;;;64.25;;
44434;SDS011;30138;20.964;105.830;2023-09-12T05:15:08;102.45;;;64.63;;
44434;SDS011;30138;20.964;105.830;2023-09-12T05:20:16;103.57;;;64.13;;
44434;SDS011;30138;20.964;105.830;2023-09-12T05:25:23;105.07;;;67.07;;
44434;SDS011;30138;20.964;105.830;2023-09-12T05:30:30;106.38;;;65.97;;
44434;SDS011;30138;20.964;105.830;2023-09-12T05:35:38;106.82;;;66.35;;
44434;SDS011;30138;20.964;105.830;2023-09-12T05:40:46;103.35;;;63.53;;
44434;SDS011;30138;20.964;105.830;2023-09-12T05:45:53;109.68;;;66.50;;
44434;SDS011;30138;20.964;105.830;2023-09-12T05:51:01;106.88;;;66.30;;
44434;SDS011;30138;20.964;105.830;2023-09-12T05:56:11;102.05;;;65.43;;
44434;SDS011;30138;20.964;105.830;2023-09-12T06:01:18;104.97;;;67.75;;
44434;SDS011;30138;20.964;105.830;2023-09-12T06:06:26;105.65;;;66.28;;
44434;SDS011;30138;20.964;105.830;2023-09-12T06:11:32;103.35;;;67.38;;
44434;SDS011;30138;20.964;105.830;2023-09-12T06:16:38;102.25;;;65.50;;
44434;SDS011;30138;20.964;105.830;2023-09-12T06:21:47;106.65;;;68.43;;
44434;SDS011;30138;20.964;105.830;2023-09-12T06:26:54;105.40;;;69.38;;
44434;SDS011;30138;20.964;105.830;2023-09-12T06:32:01;105.47;;;69.50;;
44434;SDS011;30138;20.964;105.830;2023-09-12T06:37:09;109.10;;;68.90;;
44434;SDS011;30138;20.964;105.830;2023-09-12T06:42:15;102.70;;;69.18;;
44434;SDS011;30138;20.964;105.830;2023-09-12T06:47:21;111.28;;;70.55;;
44434;SDS011;30138;20.964;105.830;2023-09-12T06:52:30;107.93;;;70.93;;
44434;SDS011;30138;20.964;105.830;2023-09-12T06:57:36;109.90;;;68.22;;
44434;SDS011;30138;20.964;105.830;2023-09-12T07:02:43;106.78;;;68.65;;
44434;SDS011;30138;20.964;105.830;2023-09-12T07:07:52;99.90;;;69.25;;
44434;SDS011;30138;20.964;105.830;2023-09-12T07:12:58;107.68;;;70.75;;
44434;SDS011;30138;20.964;105.830;2023-09-12T07:18:04;112.47;;;71.57;;
44434;SDS011;30138;20.964;105.830;2023-09-12T07:23:12;110.55;;;71.18;;
44434;SDS011;30138;20.964;105.830;2023-09-12T07:28:18;109.50;;;71.75;;
44434;SDS011;30138;20.964;105.830;2023-09-12T07:33:25;105.53;;;70.50;;
44434;SDS011;30138;20.964;105.830;2023-09-12T07:38:33;109.75;;;71.32;;
44434;SDS011;30138;20.964;105.830;2023-09-12T07:43:40;109.38;;;72.05;;
44434;SDS011;30138;20.964;105.830;2023-09-12T07:48:48;106.55;;;70.95;;
44434;SDS011;30138;20.964;105.830;2023-09-12T07:53:57;105.60;;;71.60;;
44434;SDS011;30138;20.964;105.830;2023-09-12T07:59:04;115.85;;;74.13;;
44434;SDS011;30138;20.964;105.830;2023-09-12T08:04:11;117.28;;;78.25;;
44434;SDS011;30138;20.964;105.830;2023-09-12T08:09:19;122.45;;;79.25;;
44434;SDS011;30138;20.964;105.830;2023-09-12T08:14:25;118.95;;;76.78;;
44434;SDS011;30138;20.964;105.830;2023-09-12T08:19:32;113.97;;;76.25;;
44434;SDS011;30138;20.964;105.830;2023-09-12T08:24:40;119.55;;;79.07;;
44434;SDS011;30138;20.964;105.830;2023-09-12T08:29:46;123.82;;;80.93;;
44434;SDS011;30138;20.964;105.830;2023-09-12T08:34:52;126.43;;;82.93;;
44434;SDS011;30138;20.964;105.830;2023-09-12T08:40:02;126.90;;;82.43;;
44434;SDS011;30138;20.964;105.830;2023-09-12T08:45:11;128.95;;;83.15;;
44434;SDS011;30138;20.964;105.830;2023-09-12T08:50:18;120.57;;;80.63;;
44434;SDS011;30138;20.964;105.830;2023-09-12T08:55:28;120.55;;;80.55;;
44434;SDS011;30138;20.964;105.830;2023-09-12T09:00:34;124.95;;;81.22;;
44434;SDS011;30138;20.964;105.830;2023-09-12T09:05:42;122.40;;;82.47;;
44434;SDS011;30138;20.964;105.830;2023-09-12T09:10:58;120.05;;;79.75;;
44434;SDS011;30138;20.964;105.830;2023-09-12T09:16:11;120.47;;;82.38;;
44434;SDS011;30138;20.964;105.830;2023-09-12T09:21:19;125.18;;;80.80;;
44434;SDS011;30138;20.964;105.830;2023-09-12T09:26:31;117.95;;;78.30;;
44434;SDS011;30138;20.964;105.830;2023-09-12T09:31:49;121.25;;;80.60;;
44434;SDS011;30138;20.964;105.830;2023-09-12T09:36:56;113.75;;;78.45;;
44434;SDS011;30138;20.964;105.830;2023-09-12T09:42:03;115.78;;;77.25;;
44434;SDS011;30138;20.964;105.830;2023-09-12T09:47:15;119.40;;;79.80;;
44434;SDS011;30138;20.964;105.830;2023-09-12T09:52:25;120.13;;;78.85;;
44434;SDS011;30138;20.964;105.830;2023-09-12T09:57:38;111.72;;;76.97;;
44434;SDS011;30138;20.964;105.830;2023-09-12T10:02:43;118.38;;;78.53;;
44434;SDS011;30138;20.964;105.830;2023-09-12T10:07:54;123.30;;;82.03;;
44434;SDS011;30138;20.964;105.830;2023-09-12T10:13:04;115.60;;;76.68;;
44434;SDS011;30138;20.964;105.830;2023-09-12T10:18:13;122.57;;;80.72;;
44434;SDS011;30138;20.964;105.830;2023-09-12T10:23:25;114.93;;;75.97;;
44434;SDS011;30138;20.964;105.830;2023-09-12T10:28:40;113.63;;;78.60;;
44434;SDS011;30138;20.964;105.830;2023-09-12T10:33:47;114.25;;;75.82;;
44434;SDS011;30138;20.964;105.830;2023-09-12T10:38:55;113.45;;;77.40;;
44434;SDS011;30138;20.964;105.830;2023-09-12T10:44:06;113.40;;;79.82;;
44434;SDS011;30138;20.964;105.830;2023-09-12T10:49:15;118.75;;;78.80;;
44434;SDS011;30138;20.964;105.830;2023-09-12T10:54:23;118.95;;;79.35;;
44434;SDS011;30138;20.964;105.830;2023-09-12T10:59:46;122.38;;;80.88;;
44434;SDS011;30138;20.964;105.830;2023-09-12T11:10:41;124.68;;;82.80;;
44434;SDS011;30138;20.964;105.830;2023-09-12T11:21:23;120.32;;;80.15;;
44434;SDS011;30138;20.964;105.830;2023-09-12T11:26:51;124.65;;;81.30;;
44434;SDS011;30138;20.964;105.830;2023-09-12T11:32:03;123.88;;;81.45;;
44434;SDS011;30138;20.964;105.830;2023-09-12T11:37:10;118.55;;;79.57;;
44434;SDS011;30138;20.964;105.830;2023-09-12T11:42:29;116.97;;;78.68;;
44434;SDS011;30138;20.964;105.830;2023-09-12T11:47:39;117.57;;;79.00;;
44434;SDS011;30138;20.964;105.830;2023-09-12T11:52:45;123.00;;;80.28;;
44434;SDS011;30138;20.964;105.830;2023-09-12T11:57:51;116.85;;;77.13;;
44434;SDS011;30138;20.964;105.830;2023-09-12T12:02:59;121.82;;;75.10;;
44434;SDS011;30138;20.964;105.830;2023-09-12T12:08:05;120.55;;;77.75;;
44434;SDS011;30138;20.964;105.830;2023-09-12T12:13:12;122.30;;;78.22;;
44434;SDS011;30138;20.964;105.830;2023-09-12T12:18:24;122.38;;;76.75;;
44434;SDS011;30138;20.964;105.830;2023-09-12T12:23:30;114.90;;;75.13;;
44434;SDS011;30138;20.964;105.830;2023-09-12T12:28:36;117.43;;;72.43;;
44434;SDS011;30138;20.964;105.830;2023-09-12T12:33:49;110.97;;;72.47;;
44434;SDS011;30138;20.964;105.830;2023-09-12T12:38:57;111.75;;;70.80;;
44434;SDS011;30138;20.964;105.830;2023-09-12T12:44:04;115.75;;;71.55;;
44434;SDS011;30138;20.964;105.830;2023-09-12T12:49:16;103.78;;;66.22;;
44434;SDS011;30138;20.964;105.830;2023-09-12T12:54:22;99.40;;;65.80;;
44434;SDS011;30138;20.964;105.830;2023-09-12T12:59:28;98.72;;;65.40;;
44434;SDS011;30138;20.964;105.830;2023-09-12T13:04:39;105.28;;;64.93;;
44434;SDS011;30138;20.964;105.830;2023-09-12T13:09:45;102.55;;;64.22;;
44434;SDS011;30138;20.964;105.830;2023-09-12T13:14:52;107.03;;;66.22;;
44434;SDS011;30138;20.964;105.830;2023-09-12T13:20:00;99.53;;;64.35;;
44434;SDS011;30138;20.964;105.830;2023-09-12T13:25:09;104.82;;;63.70;;
44434;SDS011;30138;20.964;105.830;2023-09-12T13:30:16;107.15;;;65.20;;
44434;SDS011;30138;20.964;105.830;2023-09-12T13:35:24;104.60;;;63.35;;
44434;SDS011;30138;20.964;105.830;2023-09-12T13:40:31;105.32;;;64.38;;
44434;SDS011;30138;20.964;105.830;2023-09-12T13:45:38;104.15;;;61.50;;
44434;SDS011;30138;20.964;105.830;2023-09-12T13:50:48;105.93;;;61.67;;
44434;SDS011;30138;20.964;105.830;2023-09-12T13:55:53;108.38;;;63.17;;
44434;SDS011;30138;20.964;105.830;2023-09-12T14:01:02;107.95;;;63.15;;
44434;SDS011;30138;20.964;105.830;2023-09-12T14:06:10;106.03;;;64.30;;
44434;SDS011;30138;20.964;105.830;2023-09-12T14:11:16;104.07;;;61.78;;
44434;SDS011;30138;20.964;105.830;2023-09-12T14:16:23;99.70;;;59.42;;
44434;SDS011;30138;20.964;105.830;2023-09-12T14:21:31;98.93;;;59.67;;
44434;SDS011;30138;20.964;105.830;2023-09-12T14:26:37;104.45;;;61.05;;
44434;SDS011;30138;20.964;105.830;2023-09-12T14:31:44;96.05;;;59.38;;
44434;SDS011;30138;20.964;105.830;2023-09-12T14:36:56;101.00;;;60.47;;
44434;SDS011;30138;20.964;105.830;2023-09-12T14:42:02;102.05;;;61.30;;
44434;SDS011;30138;20.964;105.830;2023-09-12T14:47:10;103.25;;;62.58;;
44434;SDS011;30138;20.964;105.830;2023-09-12T14:52:18;102.68;;;61.28;;
44434;SDS011;30138;20.964;105.830;2023-09-12T14:57:25;100.90;;;61.38;;
44434;SDS011;30138;20.964;105.830;2023-09-12T15:02:30;102.47;;;59.42;;
44434;SDS011;30138;20.964;105.830;2023-09-12T15:07:39;108.30;;;59.40;;
44434;SDS011;30138;20.964;105.830;2023-09-12T15:12:46;102.30;;;60.95;;
44434;SDS011;30138;20.964;105.830;2023-09-12T15:17:53;98.00;;;59.42;;
44434;SDS011;30138;20.964;105.830;2023-09-12T15:23:02;99.57;;;57.67;;
44434;SDS011;30138;20.964;105.830;2023-09-12T15:28:10;95.32;;;58.47;;
44434;SDS011;30138;20.964;105.830;2023-09-12T15:33:15;96.45;;;60.25;;
44434;SDS011;30138;20.964;105.830;2023-09-12T15:38:26;95.18;;;58.35;;
44434;SDS011;30138;20.964;105.830;2023-09-12T15:43:32;103.65;;;58.90;;
44434;SDS011;30138;20.964;105.830;2023-09-12T15:48:38;97.55;;;60.08;;
44434;SDS011;30138;20.964;105.830;2023-09-12T15:53:47;108.30;;;59.75;;
44434;SDS011;30138;20.964;105.830;2023-09-12T15:58:52;99.20;;;59.40;;
44434;SDS011;30138;20.964;105.830;2023-09-12T16:03:59;102.63;;;60.25;;
44434;SDS011;30138;20.964;105.830;2023-09-12T16:09:07;101.65;;;61.30;;
44434;SDS011;30138;20.964;105.830;2023-09-12T16:14:13;101.22;;;61.15;;
44434;SDS011;30138;20.964;105.830;2023-09-12T16:19:20;104.13;;;61.75;;
44434;SDS011;30138;20.964;105.830;2023-09-12T16:24:27;104.78;;;62.05;;
44434;SDS011;30138;20.964;105.830;2023-09-12T16:29:34;101.05;;;60.92;;
44434;SDS011;30138;20.964;105.830;2023-09-12T16:34:40;99.82;;;60.35;;
44434;SDS011;30138;20.964;105.830;2023-09-12T16:39:48;100.00;;;60.45;;
44434;SDS011;30138;20.964;105.830;2023-09-12T16:44:54;102.03;;;61.53;;
44434;SDS011;30138;20.964;105.830;2023-09-12T16:50:01;101.32;;;60.80;;
44434;SDS011;30138;20.964;105.830;2023-09-12T16:55:09;101.43;;;60.83;;
44434;SDS011;30138;20.964;105.830;2023-09-12T17:00:15;99.00;;;59.45;;
44434;SDS011;30138;20.964;105.830;2023-09-12T17:05:20;100.97;;;59.45;;
44434;SDS011;30138;20.964;105.830;2023-09-12T17:10:30;97.20;;;57.55;;
44434;SDS011;30138;20.964;105.830;2023-09-12T17:15:36;96.85;;;58.72;;
44434;SDS011;30138;20.964;105.830;2023-09-12T17:20:43;98.35;;;58.08;;
44434;SDS011;30138;20.964;105.830;2023-09-12T17:25:50;88.85;;;58.05;;
44434;SDS011;30138;20.964;105.830;2023-09-12T17:30:57;97.75;;;57.33;;
44434;SDS011;30138;20.964;105.830;2023-09-12T17:36:03;88.90;;;55.42;;
44434;SDS011;30138;20.964;105.830;2023-09-12T17:41:11;92.35;;;55.03;;
44434;SDS011;30138;20.964;105.830;2023-09-12T17:46:17;90.75;;;54.83;;
44434;SDS011;30138;20.964;105.830;2023-09-12T17:51:23;86.32;;;54.17;;
44434;SDS011;30138;20.964;105.830;2023-09-12T17:56:33;86.88;;;53.03;;
44434;SDS011;30138;20.964;105.830;2023-09-12T18:01:41;81.53;;;49.90;;
44434;SDS011;30138;20.964;105.830;2023-09-12T18:06:48;78.45;;;49.35;;
44434;SDS011;30138;20.964;105.830;2023-09-12T18:11:56;77.00;;;46.65;;
44434;SDS011;30138;20.964;105.830;2023-09-12T18:17:02;69.88;;;44.72;;
44434;SDS011;30138;20.964;105.830;2023-09-12T18:22:09;67.72;;;44.03;;
44434;SDS011;30138;20.964;105.830;2023-09-12T18:27:17;64.90;;;40.92;;
44434;SDS011;30138;20.964;105.830;2023-09-12T18:32:23;63.65;;;40.80;;
44434;SDS011;30138;20.964;105.830;2023-09-12T18:37:29;67.97;;;41.15;;
44434;SDS011;30138;20.964;105.830;2023-09-12T18:42:38;68.88;;;42.03;;
44434;SDS011;30138;20.964;105.830;2023-09-12T18:47:43;61.28;;;40.78;;
44434;SDS011;30138;20.964;105.830;2023-09-12T18:52:49;66.00;;;41.97;;
44434;SDS011;30138;20.964;105.830;2023-09-12T18:57:57;67.18;;;43.47;;
44434;SDS011;30138;20.964;105.830;2023-09-12T19:03:04;68.40;;;41.17;;
44434;SDS011;30138;20.964;105.830;2023-09-12T19:08:10;64.95;;;40.78;;
44434;SDS011;30138;20.964;105.830;2023-09-12T19:13:19;64.13;;;39.67;;
44434;SDS011;30138;20.964;105.830;2023-09-12T19:18:25;64.65;;;38.15;;
44434;SDS011;30138;20.964;105.830;2023-09-12T19:23:32;55.03;;;35.85;;
44434;SDS011;30138;20.964;105.830;2023-09-12T19:28:40;55.35;;;34.60;;
44434;SDS011;30138;20.964;105.830;2023-09-12T19:33:46;60.03;;;37.45;;
44434;SDS011;30138;20.964;105.830;2023-09-12T19:38:52;59.80;;;36.50;;
44434;SDS011;30138;20.964;105.830;2023-09-12T19:44:01;54.80;;;35.08;;
44434;SDS011;30138;20.964;105.830;2023-09-12T19:49:07;51.17;;;34.08;;
44434;SDS011;30138;20.964;105.830;2023-09-12T19:54:13;52.78;;;33.65;;
44434;SDS011;30138;20.964;105.830;2023-09-12T19:59:21;49.45;;;32.28;;
44434;SDS011;30138;20.964;105.830;2023-09-12T20:04:27;46.50;;;31.75;;
44434;SDS011;30138;20.964;105.830;2023-09-12T20:09:34;47.17;;;31.52;;
44434;SDS011;30138;20.964;105.830;2023-09-12T20:14:42;48.70;;;31.77;;
44434;SDS011;30138;20.964;105.830;2023-09-12T20:19:49;54.50;;;35.47;;
44434;SDS011;30138;20.964;105.830;2023-09-12T20:24:55;58.05;;;36.40;;
44434;SDS011;30138;20.964;105.830;2023-09-12T20:30:03;53.95;;;34.17;;
44434;SDS011;30138;20.964;105.830;2023-09-12T20:35:11;50.45;;;32.58;;
44434;SDS011;30138;20.964;105.830;2023-09-12T20:40:17;51.67;;;33.63;;
44434;SDS011;30138;20.964;105.830;2023-09-12T20:45:25;50.22;;;31.30;;
44434;SDS011;30138;20.964;105.830;2023-09-12T20:50:31;48.60;;;30.15;;
44434;SDS011;30138;20.964;105.830;2023-09-12T20:55:37;46.60;;;27.60;;
44434;SDS011;30138;20.964;105.830;2023-09-12T21:00:45;43.67;;;27.13;;
44434;SDS011;30138;20.964;105.830;2023-09-12T21:05:51;34.92;;;23.40;;
44434;SDS011;30138;20.964;105.830;2023-09-12T21:10:58;39.03;;;23.10;;
44434;SDS011;30138;20.964;105.830;2023-09-12T21:16:05;33.85;;;20.73;;
44434;SDS011;30138;20.964;105.830;2023-09-12T21:21:12;28.52;;;19.40;;
44434;SDS011;30138;20.964;105.830;2023-09-12T21:26:18;26.23;;;17.25;;
44434;SDS011;30138;20.964;105.830;2023-09-12T21:31:25;25.35;;;16.73;;
44434;SDS011;30138;20.964;105.830;2023-09-12T21:36:31;21.88;;;14.43;;
44434;SDS011;30138;20.964;105.830;2023-09-12T21:41:37;21.13;;;13.80;;
44434;SDS011;30138;20.964;105.830;2023-09-12T21:46:46;19.05;;;13.25;;
44434;SDS011;30138;20.964;105.830;2023-09-12T21:51:52;16.63;;;11.43;;
44434;SDS011;30138;20.964;105.830;2023-09-12T21:56:58;15.48;;;11.02;;
44434;SDS011;30138;20.964;105.830;2023-09-12T22:02:06;15.50;;;9.20;;
44434;SDS011;30138;20.964;105.830;2023-09-12T22:07:12;13.15;;;8.85;;
44434;SDS011;30138;20.964;105.830;2023-09-12T22:12:20;12.40;;;8.57;;
44434;SDS011;30138;20.964;105.830;2023-09-12T22:17:28;14.73;;;8.52;;
44434;SDS011;30138;20.964;105.830;2023-09-12T22:22:36;9.65;;;6.85;;
44434;SDS011;30138;20.964;105.830;2023-09-12T22:27:44;10.02;;;6.68;;
44434;SDS011;30138;20.964;105.830;2023-09-12T22:32:51;10.38;;;6.38;;
44434;SDS011;30138;20.964;105.830;2023-09-12T22:37:58;8.30;;;6.00;;
44434;SDS011;30138;20.964;105.830;2023-09-12T22:43:05;6.82;;;5.28;;
44434;SDS011;30138;20.964;105.830;2023-09-12T22:48:12;8.60;;;5.43;;
44434;SDS011;30138;20.964;105.830;2023-09-12T22:53:19;9.07;;;5.53;;
44434;SDS011;30138;20.964;105.830;2023-09-12T22:58:25;7.70;;;5.22;;
44434;SDS011;30138;20.964;105.830;2023-09-12T23:03:36;7.22;;;5.47;;
44434;SDS011;30138;20.964;105.830;2023-09-12T23:08:42;7.32;;;5.50;;
44434;SDS011;30138;20.964;105.830;2023-09-12T23:13:48;8.25;;;5.85;;
44434;SDS011;30138;20.964;105.830;2023-09-12T23:18:56;8.98;;;6.20;;
44434;SDS011;30138;20.964;105.830;2023-09-12T23:24:03;7.95;;;5.70;;
44434;SDS011;30138;20.964;105.830;2023-09-12T23:29:10;7.20;;;6.30;;
44434;SDS011;30138;20.964;105.830;2023-09-12T23:34:33;9.00;;;6.07;;
44434;SDS011;30138;20.964;105.830;2023-09-12T23:39:39;8.38;;;6.28;;
44434;SDS011;30138;20.964;105.830;2023-09-12T23:44:46;7.45;;;5.93;;
44434;SDS011;30138;20.964;105.830;2023-09-12T23:49:54;9.00;;;6.00;;
44434;SDS011;30138;20.964;105.830;2023-09-12T23:55:01;9.45;;;6.95;;
